Time;durP1;ratioP1;P1;durP2;ratioP2;P2;SDS_P1;SDS_P2;PMS_P1;PMS_P2;Temp;Humidity;BMP_temperature;BMP_pressure;BME280_temperature;BME280_humidity;BME280_pressure;Samples;Min_cycle;Max_cycle;Signal;HPM_P1;HPM_P2
2023/09/22 00:01:09;;;;;;;7.22;6.53;;;23.80;99.90;;;;;;6229152;28;88017;-69
2023/09/22 00:04:11;;;;;;;6.70;6.03;;;23.80;99.90;;;;;;6232061;28;88985;-70
2023/09/22 00:07:15;;;;;;;7.07;5.75;;;23.80;99.90;;;;;;6226133;28;89205;-69
2023/09/22 00:10:17;;;;;;;7.03;6.28;;;23.80;99.90;;;;;;6230810;28;89126;-69
2023/09/22 00:13:19;;;;;;;7.00;5.95;;;23.80;99.90;;;;;;6227082;28;89019;-69
2023/09/22 00:16:21;;;;;;;6.80;6.10;;;23.80;99.90;;;;;;6227659;28;89017;-69
2023/09/22 00:19:24;;;;;;;7.00;6.28;;;23.80;99.90;;;;;;6230076;28;88392;-69
2023/09/22 00:22:27;;;;;;;6.57;5.97;;;23.80;99.90;;;;;;6231094;28;89014;-69
2023/09/22 00:25:29;;;;;;;6.95;6.25;;;23.80;99.90;;;;;;6223128;28;88026;-69
2023/09/22 00:28:31;;;;;;;6.55;5.78;;;23.80;99.90;;;;;;6229000;28;90078;-69
2023/09/22 00:31:33;;;;;;;6.25;5.65;;;23.70;99.90;;;;;;6230461;28;89153;-69
2023/09/22 00:34:35;;;;;;;6.20;5.68;;;23.70;99.90;;;;;;6229048;28;89430;-69
2023/09/22 00:37:40;;;;;;;8.10;6.47;;;23.80;99.90;;;;;;6228932;28;89115;-69
2023/09/22 00:40:42;;;;;;;7.05;6.35;;;23.80;99.90;;;;;;6231337;28;89296;-69
2023/09/22 00:43:44;;;;;;;6.88;6.28;;;23.80;99.90;;;;;;6220568;28;87950;-69
2023/09/22 00:46:46;;;;;;;7.05;6.35;;;23.70;99.90;;;;;;6230309;28;88466;-69
2023/09/22 00:49:49;;;;;;;7.53;6.07;;;23.80;99.90;;;;;;6230382;28;88645;-69
2023/09/22 00:52:53;;;;;;;7.18;6.38;;;23.70;99.90;;;;;;6223648;28;89002;-69
2023/09/22 00:55:56;;;;;;;6.88;6.13;;;23.70;99.90;;;;;;6218532;28;89013;-69
2023/09/22 00:58:58;;;;;;;6.05;5.45;;;23.70;99.90;;;;;;6230066;28;90039;-68
2023/09/22 01:02:01;;;;;;;6.43;5.82;;;23.70;99.90;;;;;;6221867;28;88681;-68
2023/09/22 01:05:03;;;;;;;7.93;6.20;;;23.70;99.90;;;;;;6231055;28;90147;-68
2023/09/22 01:08:06;;;;;;;6.53;5.75;;;23.70;99.90;;;;;;6227475;28;91285;-69
2023/09/22 01:11:09;;;;;;;6.93;6.05;;;23.70;99.90;;;;;;6227437;28;89008;-69
2023/09/22 01:14:11;;;;;;;6.68;5.70;;;23.70;99.90;;;;;;6225044;28;88029;-68
2023/09/22 01:17:13;;;;;;;6.32;5.53;;;23.70;99.90;;;;;;6230893;28;89058;-68
2023/09/22 01:20:17;;;;;;;5.25;4.85;;;23.70;99.90;;;;;;6230626;28;88314;-69
2023/09/22 01:23:21;;;;;;;6.97;5.75;;;23.70;99.90;;;;;;6219540;28;89030;-69
2023/09/22 01:26:23;;;;;;;5.97;5.38;;;23.70;99.90;;;;;;6220857;28;88635;-69
2023/09/22 01:29:25;;;;;;;5.47;4.97;;;23.70;99.90;;;;;;6220709;28;90042;-68
2023/09/22 01:32:27;;;;;;;6.55;5.30;;;23.70;99.90;;;;;;6229035;28;89400;-69
2023/09/22 01:35:31;;;;;;;6.18;4.93;;;23.70;99.90;;;;;;6230480;28;89397;-69
2023/09/22 01:38:34;;;;;;;5.28;4.72;;;23.70;99.90;;;;;;6231025;28;89056;-69
2023/09/22 01:41:36;;;;;;;5.45;4.68;;;23.70;99.90;;;;;;6218196;28;88989;-69
2023/09/22 01:44:39;;;;;;;5.38;4.53;;;23.70;99.90;;;;;;6228190;28;88915;-69
2023/09/22 01:47:41;;;;;;;4.47;4.07;;;23.70;99.90;;;;;;6222850;28;89015;-69
2023/09/22 01:50:43;;;;;;;4.88;4.00;;;23.70;99.90;;;;;;6228845;28;88385;-69
2023/09/22 01:53:46;;;;;;;5.25;3.80;;;23.70;99.90;;;;;;6229909;28;89103;-69
2023/09/22 01:56:48;;;;;;;4.50;3.90;;;23.70;99.90;;;;;;6228437;28;89159;-69
2023/09/22 01:59:50;;;;;;;6.80;4.40;;;23.70;99.90;;;;;;6223763;28;90047;-69
2023/09/22 02:02:52;;;;;;;3.90;3.60;;;23.70;99.90;;;;;;6229329;28;89023;-69
2023/09/22 02:05:54;;;;;;;4.45;3.70;;;23.70;99.90;;;;;;6221848;28;88952;-69
2023/09/22 02:08:57;;;;;;;6.43;3.95;;;23.70;99.90;;;;;;6227421;28;87994;-69
2023/09/22 02:11:59;;;;;;;4.25;3.85;;;23.60;99.90;;;;;;6229786;28;88982;-69
2023/09/22 02:15:02;;;;;;;4.35;3.70;;;23.60;99.90;;;;;;6232629;28;89079;-69
2023/09/22 02:18:04;;;;;;;4.15;3.50;;;23.60;99.90;;;;;;6230609;28;89019;-69
2023/09/22 02:21:07;;;;;;;3.70;3.40;;;23.60;99.90;;;;;;6223299;28;88150;-70
2023/09/22 02:24:10;;;;;;;4.10;3.70;;;23.60;99.90;;;;;;6227333;28;89694;-69
2023/09/22 02:27:12;;;;;;;3.78;3.47;;;23.70;99.90;;;;;;6234737;28;89473;-70
2023/09/22 02:30:14;;;;;;;3.92;3.35;;;23.60;99.90;;;;;;6232378;28;89991;-69
2023/09/22 02:33:16;;;;;;;5.50;3.90;;;23.60;99.90;;;;;;6232722;28;89920;-69
2023/09/22 02:36:18;;;;;;;3.40;3.10;;;23.70;99.90;;;;;;6233326;28;89356;-69
2023/09/22 02:39:21;;;;;;;3.72;3.40;;;23.60;99.90;;;;;;6233269;28;89106;-69
2023/09/22 02:42:23;;;;;;;3.72;2.85;;;23.60;99.90;;;;;;6231323;28;88961;-69
2023/09/22 02:45:25;;;;;;;3.75;3.05;;;23.60;99.90;;;;;;6233167;28;87947;-69
2023/09/22 02:48:27;;;;;;;4.65;3.58;;;23.60;99.90;;;;;;6232024;28;89109;-70
2023/09/22 02:51:29;;;;;;;4.78;3.60;;;23.60;99.90;;;;;;6233208;28;88271;-69
2023/09/22 02:54:33;;;;;;;4.55;3.20;;;23.60;99.90;;;;;;6233698;28;89465;-69
2023/09/22 02:57:35;;;;;;;3.08;2.78;;;23.60;99.90;;;;;;6233095;28;89108;-69
2023/09/22 03:00:37;;;;;;;3.92;3.10;;;23.60;99.90;;;;;;6229303;28;91189;-69
2023/09/22 03:03:42;;;;;;;3.22;2.92;;;23.60;99.90;;;;;;6233009;28;88778;-69
2023/09/22 03:06:44;;;;;;;3.20;2.90;;;23.60;99.90;;;;;;6232631;28;89101;-69
2023/09/22 03:09:47;;;;;;;5.47;3.33;;;23.60;99.90;;;;;;6231175;28;89328;-69
2023/09/22 03:12:52;;;;;;;4.38;3.08;;;23.60;99.90;;;;;;6224341;28;90036;-69
2023/09/22 03:15:55;;;;;;;3.45;3.00;;;23.60;99.90;;;;;;6233929;28;89050;-69
2023/09/22 03:18:57;;;;;;;2.67;2.47;;;23.60;99.90;;;;;;6232369;28;87927;-69
2023/09/22 03:21:59;;;;;;;3.08;2.72;;;23.60;99.90;;;;;;6233143;28;87248;-69
2023/09/22 03:25:03;;;;;;;3.17;2.88;;;23.60;99.90;;;;;;6219328;28;89016;-69
2023/09/22 03:28:06;;;;;;;3.03;2.72;;;23.60;99.90;;;;;;6232529;28;89423;-69
2023/09/22 03:31:08;;;;;;;3.78;2.70;;;23.60;99.90;;;;;;6231520;28;88882;-68
2023/09/22 03:34:10;;;;;;;5.75;3.20;;;23.60;99.90;;;;;;6223376;28;89031;-69
2023/09/22 03:37:12;;;;;;;4.38;2.95;;;23.60;99.90;;;;;;6231149;28;89142;-69
2023/09/22 03:40:22;;;;;;;3.70;3.03;;;23.60;99.90;;;;;;6232488;28;89091;-69
2023/09/22 03:43:25;;;;;;;3.40;2.75;;;23.60;99.90;;;;;;6229111;28;90334;-69
2023/09/22 03:46:27;;;;;;;2.90;2.63;;;23.60;99.90;;;;;;6232136;28;87974;-69
2023/09/22 03:49:29;;;;;;;2.92;2.63;;;23.60;99.90;;;;;;6232566;28;88944;-69
2023/09/22 03:52:30;;;;;;;3.00;2.70;;;23.60;99.90;;;;;;6232230;28;88368;-69
2023/09/22 03:55:34;;;;;;;2.90;2.60;;;23.60;99.90;;;;;;6231169;28;89067;-69
2023/09/22 03:58:36;;;;;;;3.45;2.60;;;23.60;99.90;;;;;;6230079;28;89408;-69
2023/09/22 04:01:38;;;;;;;4.45;2.80;;;23.60;99.90;;;;;;6231938;28;90352;-68
2023/09/22 04:04:40;;;;;;;4.00;3.00;;;23.60;99.90;;;;;;6231838;28;89008;-69
2023/09/22 04:07:42;;;;;;;3.03;2.78;;;23.60;99.90;;;;;;6233064;28;87945;-69
2023/09/22 04:10:46;;;;;;;2.88;2.60;;;23.60;99.90;;;;;;6231018;28;90724;-69
2023/09/22 04:13:48;;;;;;;2.70;2.50;;;23.60;99.90;;;;;;6228860;28;89258;-69
2023/09/22 04:16:50;;;;;;;2.58;2.38;;;23.60;99.90;;;;;;6229336;28;89038;-69
2023/09/22 04:19:54;;;;;;;3.10;2.80;;;23.60;99.90;;;;;;6233165;28;89491;-69
2023/09/22 04:22:58;;;;;;;3.15;2.70;;;23.60;99.90;;;;;;6232081;28;88426;-69
2023/09/22 04:26:09;;;;;;;4.50;3.00;;;23.60;99.90;;;;;;6231320;28;88027;-69
2023/09/22 04:29:11;;;;;;;5.22;3.20;;;23.60;99.90;;;;;;6219358;28;88315;-70
2023/09/22 04:32:13;;;;;;;3.65;3.13;;;23.60;99.90;;;;;;6229629;28;90205;-69
2023/09/22 04:35:15;;;;;;;3.22;2.90;;;23.60;99.90;;;;;;6220281;28;89032;-69
2023/09/22 04:38:20;;;;;;;3.17;2.88;;;23.50;99.90;;;;;;6221258;28;90367;-69
2023/09/22 04:41:23;;;;;;;3.90;2.90;;;23.50;99.90;;;;;;6231094;28;89157;-69
2023/09/22 04:44:25;;;;;;;3.00;2.70;;;23.60;99.90;;;;;;6224491;28;89033;-69
2023/09/22 04:47:27;;;;;;;2.70;2.42;;;23.50;99.90;;;;;;6226108;28;89057;-69
2023/09/22 04:50:30;;;;;;;2.97;2.67;;;23.50;99.90;;;;;;6219660;28;88959;-69
2023/09/22 04:53:32;;;;;;;3.20;2.90;;;23.50;99.90;;;;;;6230716;28;88525;-69
2023/09/22 04:56:35;;;;;;;3.20;2.90;;;23.50;99.90;;;;;;6230917;28;89298;-69
2023/09/22 04:59:37;;;;;;;3.17;2.88;;;23.60;99.90;;;;;;6230970;28;89080;-69
2023/09/22 05:02:39;;;;;;;4.80;3.45;;;23.50;99.90;;;;;;6225423;28;90063;-70
2023/09/22 05:05:45;;;;;;;3.95;3.13;;;23.50;99.90;;;;;;6228089;28;89042;-69
2023/09/22 05:08:47;;;;;;;3.53;3.10;;;23.50;99.90;;;;;;6230269;28;89035;-69
2023/09/22 05:11:51;;;;;;;3.42;2.90;;;23.60;99.90;;;;;;6222960;28;89332;-69
2023/09/22 05:14:55;;;;;;;2.90;2.60;;;23.60;99.90;;;;;;6219696;28;89075;-69
2023/09/22 05:17:57;;;;;;;4.50;3.00;;;23.60;99.90;;;;;;6227534;28;90165;-69
2023/09/22 05:21:00;;;;;;;3.17;2.70;;;23.60;99.90;;;;;;6230481;28;89081;-69
2023/09/22 05:24:04;;;;;;;3.22;2.50;;;23.60;99.90;;;;;;6229767;28;88324;-68
2023/09/22 05:27:09;;;;;;;2.58;2.03;;;23.60;99.90;;;;;;6230646;28;90833;-70
2023/09/22 05:30:13;;;;;;;2.20;2.00;;;23.60;99.90;;;;;;6229899;28;89339;-70
2023/09/22 05:33:15;;;;;;;3.50;2.05;;;23.60;99.90;;;;;;6228936;28;90042;-70
2023/09/22 05:36:17;;;;;;;1.95;1.67;;;23.60;99.90;;;;;;6229226;28;88939;-69
2023/09/22 05:39:18;;;;;;;2.47;1.90;;;23.60;99.90;;;;;;6229302;28;87966;-70
2023/09/22 05:42:22;;;;;;;1.92;1.60;;;23.60;99.90;;;;;;6221644;28;89374;-70
2023/09/22 05:45:24;;;;;;;2.63;1.75;;;23.60;99.90;;;;;;6223508;28;89084;-70
2023/09/22 05:48:26;;;;;;;2.90;2.10;;;23.60;99.90;;;;;;6224905;28;89060;-70
2023/09/22 05:51:28;;;;;;;1.60;1.50;;;23.60;99.90;;;;;;6229666;28;89307;-70
2023/09/22 05:54:30;;;;;;;3.35;1.70;;;23.60;99.90;;;;;;6229990;28;88688;-70
2023/09/22 05:57:34;;;;;;;2.78;1.80;;;23.60;99.90;;;;;;6229130;28;89031;-70
2023/09/22 06:00:36;;;;;;;2.25;1.92;;;23.60;99.90;;;;;;6229894;28;89090;-70
2023/09/22 06:03:38;;;;;;;1.98;1.70;;;23.60;99.90;;;;;;6229173;28;90647;-70
2023/09/22 06:06:42;;;;;;;1.80;1.65;;;23.60;99.90;;;;;;6229298;28;89455;-70
2023/09/22 06:09:45;;;;;;;3.03;1.80;;;23.60;99.90;;;;;;6229953;28;89196;-70
2023/09/22 06:12:50;;;;;;;4.13;2.45;;;23.60;99.90;;;;;;6227023;28;90754;-70
2023/09/22 06:15:52;;;;;;;2.50;1.90;;;23.60;99.90;;;;;;6225904;28;88937;-69
2023/09/22 06:18:54;;;;;;;2.42;1.88;;;23.60;99.90;;;;;;6221224;28;88962;-70
2023/09/22 06:21:56;;;;;;;2.72;1.92;;;23.60;99.90;;;;;;6229609;28;88984;-70
2023/09/22 06:24:58;;;;;;;2.25;1.80;;;23.60;99.90;;;;;;6226576;28;88378;-70
2023/09/22 06:28:02;;;;;;;2.75;1.88;;;23.60;99.90;;;;;;6229053;28;89129;-70
2023/09/22 06:31:05;;;;;;;2.28;1.92;;;23.60;99.90;;;;;;6229251;28;89001;-70
2023/09/22 06:34:07;;;;;;;2.67;2.10;;;23.60;99.90;;;;;;6227845;28;90275;-71
2023/09/22 06:37:09;;;;;;;2.08;1.70;;;23.60;99.90;;;;;;6228498;28;89409;-70
2023/09/22 06:40:16;;;;;;;2.83;2.00;;;23.60;99.90;;;;;;6229705;28;89336;-70
2023/09/22 06:43:19;;;;;;;3.22;1.85;;;23.60;99.90;;;;;;6227778;28;89328;-70
2023/09/22 06:46:21;;;;;;;2.50;1.40;;;23.60;99.90;;;;;;6229543;28;89301;-70
2023/09/22 06:49:24;;;;;;;3.40;1.75;;;23.60;99.90;;;;;;6222662;28;89368;-70
2023/09/22 06:52:26;;;;;;;3.65;1.80;;;23.60;99.90;;;;;;6225066;28;89408;-70
2023/09/22 06:55:30;;;;;;;2.65;1.73;;;23.60;99.90;;;;;;6227966;28;88642;-69
2023/09/22 06:58:34;;;;;;;2.20;1.60;;;23.60;99.90;;;;;;6232708;28;88180;-70
2023/09/22 07:01:36;;;;;;;3.00;1.85;;;23.60;99.90;;;;;;6233552;28;89323;-69
2023/09/22 07:04:38;;;;;;;5.45;2.67;;;23.60;99.90;;;;;;6230065;28;89932;-71
2023/09/22 07:07:40;;;;;;;2.17;1.88;;;23.60;99.90;;;;;;6233341;28;88031;-70
2023/09/22 07:10:42;;;;;;;4.68;1.60;;;23.60;99.90;;;;;;6233028;28;89060;-70
2023/09/22 07:13:46;;;;;;;2.35;1.83;;;23.60;99.90;;;;;;6232786;28;89059;-69
2023/09/22 07:16:50;;;;;;;2.42;1.77;;;23.60;99.90;;;;;;6225309;28;89296;-69
2023/09/22 07:19:52;;;;;;;5.00;1.92;;;23.60;99.90;;;;;;6228699;28;89022;-70
2023/09/22 07:22:54;;;;;;;3.00;1.90;;;23.60;99.90;;;;;;6226354;28;89026;-70
2023/09/22 07:25:59;;;;;;;2.60;1.92;;;23.60;99.90;;;;;;6232750;28;88416;-70
2023/09/22 07:29:02;;;;;;;4.82;2.33;;;23.60;99.90;;;;;;6232342;28;89084;-70
2023/09/22 07:32:05;;;;;;;2.90;2.10;;;23.60;99.90;;;;;;6228261;28;88051;-69
2023/09/22 07:35:08;;;;;;;2.20;1.85;;;23.60;99.90;;;;;;6230458;28;89864;-70
2023/09/22 07:38:10;;;;;;;3.33;2.00;;;23.60;99.90;;;;;;6229180;28;89044;-69
2023/09/22 07:41:12;;;;;;;1.80;1.70;;;23.60;99.90;;;;;;6232520;28;89063;-70
2023/09/22 07:44:18;;;;;;;3.05;2.10;;;23.70;99.90;;;;;;6232168;28;88992;-70
2023/09/22 07:47:20;;;;;;;2.08;1.88;;;23.60;99.90;;;;;;6231300;28;88132;-70
2023/09/22 07:50:22;;;;;;;2.03;1.70;;;23.60;99.90;;;;;;6231584;28;89471;-70
2023/09/22 07:53:25;;;;;;;2.22;1.80;;;23.60;99.90;;;;;;6225078;28;88968;-69
2023/09/22 07:56:30;;;;;;;2.40;1.98;;;23.60;99.90;;;;;;6232051;28;88401;-70
2023/09/22 07:59:34;;;;;;;2.40;1.92;;;23.60;99.90;;;;;;6225125;28;88936;-70
2023/09/22 08:02:38;;;;;;;2.25;1.92;;;23.60;99.90;;;;;;6226046;28;89037;-70
2023/09/22 08:05:40;;;;;;;2.70;1.90;;;23.60;99.90;;;;;;6231050;28;90167;-70
2023/09/22 08:08:42;;;;;;;2.22;2.03;;;23.60;99.90;;;;;;6227604;28;89122;-70
2023/09/22 08:11:44;;;;;;;2.20;2.00;;;23.60;99.90;;;;;;6223943;28;89356;-70
2023/09/22 08:14:47;;;;;;;3.25;2.15;;;23.60;99.90;;;;;;6230355;28;89076;-70
2023/09/22 08:17:50;;;;;;;2.78;1.95;;;23.60;99.90;;;;;;6232564;28;89065;-70
2023/09/22 08:20:53;;;;;;;2.10;1.85;;;23.60;99.90;;;;;;6219378;28;89005;-70
2023/09/22 08:23:55;;;;;;;2.33;2.10;;;23.60;99.90;;;;;;6230403;28;89015;-70
2023/09/22 08:26:59;;;;;;;2.65;2.10;;;23.60;99.90;;;;;;6230590;28;88460;-70
2023/09/22 08:30:09;;;;;;;2.75;2.00;;;23.60;99.90;;;;;;6228441;28;89575;-70
2023/09/22 08:33:10;;;;;;;2.42;2.10;;;23.60;99.90;;;;;;6230047;28;89338;-69
2023/09/22 08:36:13;;;;;;;4.10;2.55;;;23.60;99.90;;;;;;6221141;28;90007;-70
2023/09/22 08:39:16;;;;;;;4.20;2.38;;;23.60;99.90;;;;;;6231366;28;89127;-70
2023/09/22 08:42:18;;;;;;;2.10;1.80;;;23.60;99.90;;;;;;6233443;28;89125;-69
2023/09/22 08:45:22;;;;;;;2.80;2.00;;;23.60;99.90;;;;;;6223587;28;88996;-70
2023/09/22 08:48:25;;;;;;;2.35;2.03;;;23.60;99.90;;;;;;6230284;28;89100;-69
2023/09/22 08:51:28;;;;;;;2.53;2.20;;;23.60;99.90;;;;;;6231089;28;89088;-70
2023/09/22 08:54:30;;;;;;;2.53;2.30;;;23.60;99.90;;;;;;6231041;28;89045;-70
2023/09/22 08:57:32;;;;;;;2.72;2.50;;;23.60;99.90;;;;;;6230028;28;88277;-70
2023/09/22 09:00:36;;;;;;;3.03;2.45;;;23.60;99.90;;;;;;6220160;28;88960;-69
2023/09/22 09:03:38;;;;;;;2.42;2.20;;;23.60;99.90;;;;;;6229668;28;89086;-70
2023/09/22 09:06:46;;;;;;;2.20;2.00;;;23.60;99.90;;;;;;6228822;28;90046;-70
2023/09/22 09:09:48;;;;;;;5.00;2.80;;;23.50;99.90;;;;;;6230219;28;87930;-70
2023/09/22 09:12:50;;;;;;;2.20;2.00;;;23.60;99.90;;;;;;6230090;28;88999;-71
2023/09/22 09:15:57;;;;;;;2.50;2.30;;;23.50;99.90;;;;;;6230863;28;89074;-69
2023/09/22 09:19:15;;;;;;;2.33;2.00;;;23.60;99.90;;;;;;6230248;28;88993;-69
2023/09/22 09:22:16;;;;;;;2.30;2.10;;;23.50;99.90;;;;;;6235714;27;89234;-70
2023/09/22 09:25:19;;;;;;;2.40;2.13;;;23.50;99.90;;;;;;6229975;28;88835;-69
2023/09/22 09:28:23;;;;;;;2.20;2.00;;;23.50;99.90;;;;;;6230129;28;88368;-70
2023/09/22 09:31:43;;;;;;;5.53;2.72;;;23.50;99.90;;;;;;6230189;28;89071;-70
2023/09/22 09:34:45;;;;;;;2.40;2.20;;;23.50;99.90;;;;;;6229604;28;88984;-69
2023/09/22 09:38:02;;;;;;;2.90;2.22;;;23.50;99.90;;;;;;6229208;28;90014;-69
2023/09/22 09:41:04;;;;;;;4.22;2.65;;;23.50;99.90;;;;;;6229349;28;89205;-70
2023/09/22 09:44:07;;;;;;;2.72;2.10;;;23.50;99.90;;;;;;6226732;28;89121;-70
2023/09/22 09:47:12;;;;;;;2.50;2.00;;;23.50;99.90;;;;;;6229428;27;89272;-72
2023/09/22 09:50:16;;;;;;;3.63;2.10;;;23.50;99.90;;;;;;6226379;27;90259;-69
2023/09/22 09:53:32;;;;;;;3.55;2.20;;;23.50;99.90;;;;;;6228793;28;89116;-69
2023/09/22 09:56:39;;;;;;;5.75;2.78;;;23.70;99.90;;;;;;6227984;28;89574;-70
2023/09/22 09:59:42;;;;;;;8.13;3.72;;;24.10;99.90;;;;;;6229972;28;87514;-69
2023/09/22 10:02:46;;;;;;;14.38;4.57;;;24.50;99.90;;;;;;6230607;28;89214;-70
2023/09/22 10:05:51;;;;;;;11.45;3.80;;;24.70;99.90;;;;;;6235996;28;89042;-70
2023/09/22 10:08:54;;;;;;;17.35;4.78;;;24.80;99.90;;;;;;6225480;28;89888;-70
2023/09/22 10:11:56;;;;;;;11.32;4.47;;;24.80;99.90;;;;;;6226553;28;87913;-70
2023/09/22 10:15:01;;;;;;;16.42;5.03;;;24.70;99.90;;;;;;6229960;28;87929;-70
2023/09/22 10:18:05;;;;;;;14.10;4.55;;;24.60;99.90;;;;;;6229789;28;87919;-71
2023/09/22 10:21:07;;;;;;;12.38;4.63;;;24.60;99.90;;;;;;6227556;28;89047;-70
2023/09/22 10:24:22;;;;;;;10.48;4.13;;;24.50;99.90;;;;;;6229832;28;89130;-69
2023/09/22 10:27:25;;;;;;;11.00;4.20;;;24.50;99.90;;;;;;6222011;28;89421;-70
2023/09/22 10:31:03;;;;;;;9.80;3.90;;;24.50;99.90;;;;;;6228705;28;88384;-69
2023/09/22 10:34:47;;;;;;;11.45;4.55;;;24.40;99.90;;;;;;6232667;28;89344;-69
2023/09/22 10:37:59;;;;;;;9.52;4.05;;;24.40;99.90;;;;;;6227271;28;88430;-69
2023/09/22 10:41:05;;;;;;;11.85;4.38;;;24.30;99.90;;;;;;6228016;28;90156;-70
2023/09/22 10:44:12;;;;;;;9.20;4.00;;;24.30;99.90;;;;;;6234073;28;87946;-70
2023/09/22 10:47:14;;;;;;;9.25;3.88;;;24.30;99.90;;;;;;6228437;28;88104;-69
2023/09/22 10:50:20;;;;;;;9.57;3.80;;;24.20;99.90;;;;;;6231978;28;89124;-70
2023/09/22 10:53:22;;;;;;;9.73;3.50;;;24.20;99.90;;;;;;6232567;28;88174;-69
2023/09/22 10:56:24;;;;;;;8.57;3.80;;;24.20;99.90;;;;;;6232208;28;89343;-70
2023/09/22 10:59:33;;;;;;;7.60;3.33;;;24.20;99.90;;;;;;6234192;28;89337;-70
2023/09/22 11:02:35;;;;;;;7.57;3.20;;;24.10;99.90;;;;;;6231756;28;88458;-70
2023/09/22 11:05:40;;;;;;;6.70;3.60;;;24.10;99.90;;;;;;6233587;28;89153;-70
2023/09/22 11:08:48;;;;;;;4.93;3.33;;;24.10;99.90;;;;;;6232450;28;89269;-70
2023/09/22 11:11:51;;;;;;;8.15;3.33;;;24.10;99.90;;;;;;6230329;28;90098;-70
2023/09/22 11:14:53;;;;;;;7.90;3.92;;;24.10;99.90;;;;;;6229627;28;89137;-70
2023/09/22 11:17:55;;;;;;;7.68;3.40;;;24.00;99.90;;;;;;6233973;28;87877;-70
2023/09/22 11:20:59;;;;;;;6.53;3.15;;;24.00;99.90;;;;;;6233150;28;90849;-70
2023/09/22 11:24:03;;;;;;;7.32;3.08;;;24.00;99.90;;;;;;6222530;28;89034;-70
2023/09/22 11:27:06;;;;;;;5.10;3.05;;;23.90;99.90;;;;;;6229155;28;89231;-71
2023/09/22 11:30:14;;;;;;;6.20;3.10;;;24.00;99.90;;;;;;6229094;28;88937;-70
2023/09/22 11:33:16;;;;;;;7.55;3.03;;;24.00;99.90;;;;;;6233102;28;88368;-70
2023/09/22 11:36:19;;;;;;;8.48;3.38;;;23.90;99.90;;;;;;6229477;28;88998;-70
2023/09/22 11:39:25;;;;;;;9.23;3.65;;;24.00;99.90;;;;;;6217139;28;89411;-70
2023/09/22 11:42:27;;;;;;;4.88;3.08;;;23.90;99.90;;;;;;6230988;28;90050;-70
2023/09/22 11:45:29;;;;;;;6.32;3.10;;;23.90;99.90;;;;;;6232278;28;89057;-70
2023/09/22 11:48:31;;;;;;;5.03;2.95;;;23.90;99.90;;;;;;6231701;28;89000;-71
2023/09/22 11:51:50;;;;;;;5.13;2.75;;;23.90;99.90;;;;;;6231904;28;89098;-70
2023/09/22 11:54:52;;;;;;;4.50;2.75;;;23.90;99.90;;;;;;6232732;28;88958;-70
2023/09/22 11:57:54;;;;;;;4.00;2.65;;;24.00;99.90;;;;;;6231497;28;89259;-71
2023/09/22 12:00:56;;;;;;;4.78;2.95;;;23.90;99.90;;;;;;6225568;28;89124;-71
2023/09/22 12:03:58;;;;;;;5.70;2.80;;;23.90;99.90;;;;;;6232175;28;88691;-71
2023/09/22 12:07:02;;;;;;;6.43;3.08;;;23.90;99.90;;;;;;6231431;28;89329;-70
2023/09/22 12:10:04;;;;;;;3.65;2.53;;;23.90;99.90;;;;;;6231990;28;89095;-70
2023/09/22 12:13:06;;;;;;;5.65;3.10;;;23.90;99.90;;;;;;6228473;28;89445;-70
2023/09/22 12:16:08;;;;;;;4.85;2.88;;;23.90;99.90;;;;;;6232222;28;89538;-70
2023/09/22 12:19:10;;;;;;;4.60;2.67;;;23.90;99.90;;;;;;6231223;28;89359;-70
2023/09/22 12:22:13;;;;;;;3.78;2.63;;;23.90;99.90;;;;;;6231018;28;89055;-70
2023/09/22 12:25:15;;;;;;;4.85;2.70;;;23.90;99.90;;;;;;6231138;28;89391;-70
2023/09/22 12:28:17;;;;;;;3.85;2.63;;;23.90;99.90;;;;;;6231981;28;89032;-70
2023/09/22 12:31:20;;;;;;;5.90;3.20;;;23.90;99.90;;;;;;6230720;28;88010;-70
2023/09/22 12:34:22;;;;;;;4.53;2.88;;;23.90;99.90;;;;;;6233169;28;88824;-70
2023/09/22 12:37:25;;;;;;;4.13;2.80;;;23.90;99.90;;;;;;6232718;28;88993;-70
2023/09/22 12:40:27;;;;;;;4.15;2.60;;;23.90;99.90;;;;;;6231054;28;90233;-70
2023/09/22 12:43:29;;;;;;;3.67;2.50;;;23.90;99.90;;;;;;6231116;28;88887;-69
2023/09/22 12:46:31;;;;;;;3.17;2.58;;;23.90;99.90;;;;;;6228486;28;91938;-69
2023/09/22 12:49:33;;;;;;;3.70;2.70;;;23.90;99.90;;;;;;6230985;28;89044;-69
2023/09/22 12:52:37;;;;;;;4.05;2.78;;;23.90;99.90;;;;;;6227965;28;89180;-69
2023/09/22 12:55:39;;;;;;;3.60;2.50;;;23.90;99.90;;;;;;6230686;28;89018;-69
2023/09/22 12:58:40;;;;;;;3.88;2.40;;;23.90;99.90;;;;;;6230347;28;87977;-69
2023/09/22 13:01:42;;;;;;;5.22;2.65;;;23.80;99.90;;;;;;6232081;28;89044;-69
2023/09/22 13:04:46;;;;;;;3.50;2.80;;;23.80;99.90;;;;;;6230717;28;88146;-69
2023/09/22 13:07:49;;;;;;;3.33;2.60;;;23.80;99.90;;;;;;6228549;28;89094;-69
2023/09/22 13:10:51;;;;;;;4.05;2.55;;;23.80;99.90;;;;;;6229744;28;89019;-69
2023/09/22 13:13:53;;;;;;;4.13;2.45;;;23.80;99.90;;;;;;6229240;28;90008;-69
2023/09/22 13:16:55;;;;;;;2.83;2.20;;;23.80;99.90;;;;;;6228789;28;88826;-69
2023/09/22 13:19:57;;;;;;;5.38;2.90;;;23.70;99.90;;;;;;6242365;27;89169;-69
2023/09/22 13:23:01;;;;;;;4.88;2.65;;;23.70;99.90;;;;;;6231012;28;88806;-69
2023/09/22 13:26:04;;;;;;;4.82;3.15;;;23.70;99.90;;;;;;6229542;28;89084;-69
2023/09/22 13:29:06;;;;;;;3.75;2.58;;;23.70;99.90;;;;;;6240655;28;88908;-70
2023/09/22 13:32:09;;;;;;;3.70;2.80;;;23.70;99.90;;;;;;6231064;28;89001;-69
2023/09/22 13:35:11;;;;;;;5.00;2.72;;;23.70;99.90;;;;;;6230464;28;88408;-70
2023/09/22 13:38:15;;;;;;;3.38;2.60;;;23.70;99.90;;;;;;6224434;28;89006;-69
2023/09/22 13:41:17;;;;;;;2.85;2.33;;;23.70;99.90;;;;;;6229059;28;89216;-69
2023/09/22 13:44:19;;;;;;;4.30;2.40;;;23.70;99.90;;;;;;6229329;28;90255;-69
2023/09/22 13:47:21;;;;;;;5.00;2.83;;;23.70;99.90;;;;;;6227309;28;89261;-70
2023/09/22 13:50:24;;;;;;;3.08;2.50;;;23.60;99.90;;;;;;6231301;28;89418;-69
2023/09/22 13:53:27;;;;;;;3.08;2.10;;;23.70;99.90;;;;;;6219329;28;89020;-69
2023/09/22 13:56:29;;;;;;;2.75;2.38;;;23.70;99.90;;;;;;6227774;28;89090;-69
2023/09/22 13:59:32;;;;;;;3.42;2.67;;;23.70;99.90;;;;;;6223556;28;89066;-70
2023/09/22 14:02:34;;;;;;;3.65;2.40;;;23.70;99.90;;;;;;6227162;28;88996;-70
2023/09/22 14:05:36;;;;;;;4.28;2.35;;;23.60;99.90;;;;;;6231210;28;88052;-69
2023/09/22 14:08:41;;;;;;;2.63;2.13;;;23.60;99.90;;;;;;6233865;28;89198;-70
2023/09/22 14:11:43;;;;;;;3.58;2.40;;;23.60;99.90;;;;;;6232730;28;89326;-70
2023/09/22 14:14:45;;;;;;;5.10;2.75;;;23.60;99.90;;;;;;6233949;28;90310;-69
2023/09/22 14:17:48;;;;;;;4.00;2.30;;;23.60;99.90;;;;;;6234108;28;88954;-70
2023/09/22 14:20:51;;;;;;;3.25;2.40;;;23.60;99.90;;;;;;6235204;28;89042;-69
2023/09/22 14:23:54;;;;;;;2.58;2.20;;;23.60;99.90;;;;;;6234325;28;87915;-70
2023/09/22 14:26:57;;;;;;;2.85;2.30;;;23.60;99.90;;;;;;6233460;28;89032;-70
2023/09/22 14:30:01;;;;;;;3.53;2.30;;;23.60;99.90;;;;;;6247001;28;87847;-69
2023/09/22 14:33:03;;;;;;;4.28;2.70;;;23.60;99.90;;;;;;6234050;28;89207;-69
2023/09/22 14:36:06;;;;;;;4.20;2.70;;;23.60;99.90;;;;;;6233803;28;88337;-70
2023/09/22 14:39:10;;;;;;;2.72;2.10;;;23.60;99.90;;;;;;6235171;28;88082;-69
2023/09/22 14:42:13;;;;;;;2.53;2.08;;;23.60;99.90;;;;;;6221701;28;89159;-70
2023/09/22 14:45:16;;;;;;;2.60;2.15;;;23.60;99.90;;;;;;6245015;28;89333;-70
2023/09/22 14:48:20;;;;;;;3.33;2.20;;;23.60;99.90;;;;;;6233804;28;87015;-70
2023/09/22 14:51:23;;;;;;;3.15;2.30;;;23.50;99.90;;;;;;6232928;28;87559;-70
2023/09/22 14:54:27;;;;;;;2.63;2.03;;;23.60;99.90;;;;;;6233801;28;87420;-70
2023/09/22 14:57:30;;;;;;;3.00;2.10;;;23.60;99.90;;;;;;6232326;28;88217;-70
2023/09/22 15:00:32;;;;;;;5.38;2.35;;;23.50;99.90;;;;;;6222106;28;89277;-69
2023/09/22 15:03:35;;;;;;;3.20;2.20;;;23.60;99.90;;;;;;6234071;28;89664;-70
2023/09/22 15:06:37;;;;;;;2.72;2.03;;;23.50;99.90;;;;;;6221606;28;88406;-70
2023/09/22 15:09:42;;;;;;;3.78;2.30;;;23.50;99.90;;;;;;6232612;28;87963;-70
2023/09/22 15:12:45;;;;;;;2.70;2.00;;;23.50;99.90;;;;;;6233906;28;88883;-70
2023/09/22 15:15:47;;;;;;;2.60;2.25;;;23.50;99.90;;;;;;6232448;28;88946;-70
2023/09/22 15:18:50;;;;;;;2.67;1.98;;;23.50;99.90;;;;;;6224805;28;89279;-70
2023/09/22 15:21:52;;;;;;;2.47;1.95;;;23.50;99.90;;;;;;6228389;28;89305;-70
2023/09/22 15:24:56;;;;;;;2.33;1.90;;;23.50;99.90;;;;;;6232725;28;89319;-69
2023/09/22 15:27:59;;;;;;;2.80;1.95;;;23.50;99.90;;;;;;6240982;28;87997;-69
2023/09/22 15:31:02;;;;;;;3.20;2.25;;;23.50;99.90;;;;;;6233291;28;88042;-69
2023/09/22 15:34:06;;;;;;;3.20;2.03;;;23.50;99.90;;;;;;6232394;28;88195;-69
2023/09/22 15:37:09;;;;;;;2.53;2.03;;;23.50;99.90;;;;;;6233115;28;87466;-69
2023/09/22 15:40:14;;;;;;;2.53;2.20;;;23.50;99.90;;;;;;6231684;28;89570;-69
2023/09/22 15:43:18;;;;;;;2.13;1.90;;;23.50;99.90;;;;;;6231895;28;87027;-69
2023/09/22 15:46:20;;;;;;;1.75;1.63;;;23.50;99.90;;;;;;6230001;28;88954;-69
2023/09/22 15:49:24;;;;;;;2.95;2.00;;;23.50;99.90;;;;;;6216295;28;88806;-69
2023/09/22 15:52:27;;;;;;;2.70;1.92;;;23.50;99.90;;;;;;6224169;28;88209;-69